createdAt,value
2019-05-22T00:01:44.036Z,65.64
2019-05-22T00:04:16.534Z,66.53
2019-05-22T00:06:47.825Z,66.83
2019-05-22T00:09:19.738Z,66.85
2019-05-22T00:11:52.233Z,66.58
2019-05-22T00:14:24.559Z,66.95
2019-05-22T00:16:54.503Z,67.70
2019-05-22T00:19:24.941Z,67.94
2019-05-22T00:22:00.999Z,68.59
2019-05-22T00:24:32.395Z,68.78
2019-05-22T00:27:04.973Z,69.32
2019-05-22T00:29:35.527Z,69.04
2019-05-22T00:32:05.433Z,69.59
2019-05-22T00:34:36.217Z,69.46
2019-05-22T00:37:07.897Z,69.06
2019-05-22T00:39:37.422Z,68.16
2019-05-22T00:42:11.483Z,68.56
2019-05-22T00:44:42.641Z,68.75
2019-05-22T00:47:14.436Z,69.15
2019-05-22T00:49:46.914Z,69.76
2019-05-22T00:52:45.199Z,69.88
2019-05-22T00:55:31.649Z,69.52
2019-05-22T00:58:05.991Z,67.76
2019-05-22T01:00:45.456Z,67.50
2019-05-22T01:03:19.128Z,67.45
2019-05-22T01:05:49.537Z,69.02
2019-05-22T01:08:20.556Z,69.09
2019-05-22T01:10:53.091Z,68.86
2019-05-22T01:13:22.823Z,68.96
2019-05-22T01:15:52.524Z,69.62
2019-05-22T01:18:26.010Z,68.56
2019-05-22T01:20:59.270Z,67.97
2019-05-22T01:23:33.270Z,67.67
2019-05-22T01:26:03.135Z,68.03
2019-05-22T01:28:35.778Z,68.85
2019-05-22T01:31:16.244Z,69.97
2019-05-22T01:33:50.042Z,68.74
2019-05-22T01:36:30.445Z,68.66
2019-05-22T01:39:16.251Z,69.22
2019-05-22T01:41:50.439Z,69.88
2019-05-22T01:44:22.112Z,70.38
2019-05-22T01:46:53.944Z,70.37
2019-05-22T01:49:25.585Z,70.83
2019-05-22T01:51:56.025Z,71.01
2019-05-22T01:54:25.915Z,71.79
2019-05-22T01:57:04.312Z,71.67
2019-05-22T01:59:36.889Z,71.49
2019-05-22T02:02:09.481Z,71.65
2019-05-22T02:04:39.556Z,71.72
2019-05-22T02:07:11.704Z,71.72
2019-05-22T02:09:42.997Z,72.52
2019-05-22T02:12:20.505Z,73.64
2019-05-22T02:14:52.058Z,74.07
2019-05-22T02:17:25.717Z,75.07
2019-05-22T02:19:55.676Z,75.62
2019-05-22T02:22:27.191Z,75.96
2019-05-22T02:24:57.861Z,76.71
2019-05-22T02:27:28.107Z,76.91
2019-05-22T02:29:59.129Z,76.89
2019-05-22T02:32:29.444Z,77.38
2019-05-22T02:34:58.889Z,77.42
2019-05-22T02:37:28.748Z,77.68
2019-05-22T02:39:58.657Z,78.72
2019-05-22T02:42:30.893Z,78.96
2019-05-22T02:45:01.722Z,79.33
2019-05-22T02:47:32.133Z,79.63
2019-05-22T02:50:01.639Z,79.66
2019-05-22T02:52:31.189Z,79.79
2019-05-22T02:55:00.858Z,79.46
2019-05-22T02:57:31.736Z,79.21
2019-05-22T03:00:01.791Z,78.99
2019-05-22T03:02:32.904Z,78.67
2019-05-22T03:05:08.626Z,78.56
2019-05-22T03:07:40.400Z,78.49
2019-05-22T03:10:13.519Z,78.54
2019-05-22T03:12:45.648Z,78.34
2019-05-22T03:15:18.124Z,78.39
2019-05-22T03:17:49.635Z,77.81
2019-05-22T03:20:21.889Z,77.38
2019-05-22T03:23:19.054Z,76.61
2019-05-22T03:25:48.542Z,76.21
2019-05-22T03:28:18.128Z,75.64
2019-05-22T03:30:50.308Z,74.97
2019-05-22T03:33:19.765Z,74.75
2019-05-22T03:35:52.085Z,73.51
2019-05-22T03:38:23.180Z,72.99
2019-05-22T03:40:54.701Z,71.45
2019-05-22T03:43:27.226Z,71.04
2019-05-22T03:45:58.913Z,69.67
2019-05-22T03:48:32.522Z,68.52
2019-05-22T03:51:12.399Z,67.83
2019-05-22T03:53:44.090Z,66.83
2019-05-22T03:56:17.612Z,65.56
2019-05-22T03:58:47.589Z,65.24
2019-05-22T04:01:19.507Z,64.49
2019-05-22T04:03:49.451Z,64.19
2019-05-22T04:06:21.967Z,63.78
2019-05-22T04:08:54.329Z,63.25
2019-05-22T04:11:27.830Z,62.35
2019-05-22T04:13:58.449Z,60.89
2019-05-22T04:16:28.778Z,60.39
2019-05-22T04:18:58.437Z,60.45
2019-05-22T04:21:30.185Z,59.99
2019-05-22T04:24:00.598Z,59.51
2019-05-22T04:26:30.827Z,59.19
2019-05-22T04:29:02.313Z,57.66
2019-05-22T04:31:42.075Z,56.32
2019-05-22T04:34:12.188Z,55.74
2019-05-22T04:36:41.763Z,55.44
2019-05-22T04:39:18.767Z,55.20
2019-05-22T04:41:48.622Z,56.82
2019-05-22T04:44:18.651Z,60.49
2019-05-22T04:46:48.559Z,57.40
2019-05-22T04:49:18.133Z,55.37
2019-05-22T04:51:47.794Z,55.03
2019-05-22T04:54:17.314Z,56.27
2019-05-22T04:56:47.401Z,55.73
2019-05-22T04:59:17.678Z,55.28
2019-05-22T05:01:47.485Z,52.24
2019-05-22T05:04:17.221Z,53.41
2019-05-22T05:06:46.681Z,52.90
2019-05-22T05:09:16.306Z,51.92
2019-05-22T05:11:46.904Z,51.58
2019-05-22T05:14:16.383Z,49.57
2019-05-22T05:16:46.993Z,49.55
2019-05-22T05:19:16.783Z,47.55
2019-05-22T05:21:46.339Z,46.95
2019-05-22T05:24:15.839Z,46.75
2019-05-22T05:26:46.477Z,44.47
2019-05-22T05:29:31.209Z,43.72
2019-05-22T05:32:01.306Z,44.03
2019-05-22T05:35:05.026Z,46.54
2019-05-22T05:37:34.868Z,47.12
2019-05-22T05:40:29.693Z,47.55
2019-05-22T05:43:00.124Z,47.99
2019-05-22T05:45:30.972Z,47.86
2019-05-22T05:48:02.729Z,46.11
2019-05-22T05:50:39.708Z,45.07
2019-05-22T05:53:08.970Z,44.42
2019-05-22T05:56:02.947Z,44.87
2019-05-22T05:58:32.964Z,44.14
2019-05-22T06:01:13.175Z,42.82
2019-05-22T06:03:43.461Z,41.84
2019-05-22T06:07:00.742Z,42.19
2019-05-22T06:09:30.832Z,42.34
2019-05-22T06:12:05.376Z,44.28
2019-05-22T06:14:35.568Z,43.79
2019-05-22T06:17:51.909Z,44.63
2019-05-22T06:20:24.133Z,45.02
2019-05-22T06:23:48.551Z,45.50
2019-05-22T06:27:00.335Z,45.47
2019-05-22T06:30:14.194Z,44.51
2019-05-22T06:33:21.782Z,44.26
2019-05-22T06:36:00.356Z,45.52
2019-05-22T06:39:15.548Z,45.57
2019-05-22T06:41:46.782Z,46.20
2019-05-22T06:44:35.331Z,46.91
2019-05-22T06:47:06.901Z,46.76
2019-05-22T06:49:47.843Z,46.37
2019-05-22T06:52:17.993Z,46.57
2019-05-22T06:54:47.755Z,47.15
2019-05-22T06:57:39.263Z,46.58
2019-05-22T07:00:15.196Z,46.32
2019-05-22T07:02:47.305Z,46.31
2019-05-22T07:05:17.040Z,46.49
2019-05-22T07:07:47.134Z,45.59
2019-05-22T07:10:16.841Z,44.33
2019-05-22T07:12:50.512Z,44.70
2019-05-22T07:15:41.835Z,44.99
2019-05-22T07:18:13.463Z,45.42
2019-05-22T07:20:45.714Z,44.78
2019-05-22T07:26:25.021Z,43.92
2019-05-22T07:29:04.465Z,42.74
2019-05-22T07:31:32.199Z,42.27
2019-05-22T07:34:01.763Z,42.46
2019-05-22T07:36:33.115Z,43.46
2019-05-22T07:39:04.738Z,41.48
2019-05-22T07:41:35.301Z,40.07
2019-05-22T07:44:05.250Z,40.83
2019-05-22T07:46:35.063Z,39.50
2019-05-22T07:49:05.281Z,40.22
2019-05-22T07:51:50.438Z,41.21
2019-05-22T07:54:07.117Z,41.36
2019-05-22T07:56:37.534Z,39.63
2019-05-22T07:59:06.905Z,39.09
2019-05-22T08:01:36.648Z,40.76
2019-05-22T08:04:06.696Z,39.56
2019-05-22T08:06:36.282Z,37.79
2019-05-22T08:09:09.602Z,37.62
2019-05-22T08:11:39.673Z,38.08
2019-05-22T08:14:11.178Z,38.19
2019-05-22T08:16:41.760Z,37.17
2019-05-22T08:19:11.347Z,37.17
2019-05-22T08:21:42.323Z,36.29
2019-05-22T08:24:11.869Z,36.20
2019-05-22T08:26:53.852Z,36.13
2019-05-22T08:29:15.283Z,34.66
2019-05-22T08:31:45.491Z,34.45
2019-05-22T08:34:16.505Z,35.40
2019-05-22T08:36:48.925Z,36.45
2019-05-22T08:39:19.196Z,36.95
2019-05-22T08:41:49.122Z,35.73
2019-05-22T08:44:19.149Z,36.08
2019-05-22T08:46:49.692Z,35.80
2019-05-22T08:49:19.463Z,34.63
2019-05-22T08:51:49.830Z,32.80
2019-05-22T08:54:19.917Z,33.32
2019-05-22T08:56:52.068Z,34.13
2019-05-22T08:59:22.487Z,33.92
2019-05-22T09:01:52.363Z,33.02
2019-05-22T09:04:22.386Z,33.30
2019-05-22T09:06:51.890Z,32.92
2019-05-22T09:09:22.028Z,33.37
2019-05-22T09:11:51.668Z,33.28
2019-05-22T09:14:21.074Z,33.13
2019-05-22T09:16:50.944Z,32.47
2019-05-22T09:19:20.905Z,32.49
2019-05-22T09:21:50.904Z,32.43
2019-05-22T09:24:21.386Z,33.51
2019-05-22T09:26:50.879Z,33.11
2019-05-22T09:29:20.954Z,32.47
2019-05-22T09:31:50.924Z,32.54
2019-05-22T09:34:20.544Z,33.10
2019-05-22T09:36:49.946Z,33.27
2019-05-22T09:39:19.749Z,32.65
2019-05-22T09:41:49.213Z,32.51
2019-05-22T09:44:18.642Z,32.36
2019-05-22T09:46:49.423Z,32.30
2019-05-22T09:49:19.116Z,32.75
2019-05-22T09:51:48.628Z,33.06
2019-05-22T09:54:18.284Z,32.87
2019-05-22T09:56:47.830Z,32.01
2019-05-22T09:59:18.821Z,31.71
2019-05-22T10:01:48.375Z,32.16
2019-05-22T10:04:17.866Z,32.50
2019-05-22T10:06:47.850Z,32.27
2019-05-22T10:09:17.631Z,34.03
2019-05-22T10:11:47.822Z,33.21
2019-05-22T10:14:17.617Z,32.89
2019-05-22T10:16:47.074Z,32.42
2019-05-22T10:19:16.634Z,32.88
2019-05-22T10:21:47.322Z,32.71
2019-05-22T10:24:16.938Z,32.34
2019-05-22T10:26:46.719Z,33.03
2019-05-22T10:29:16.326Z,31.92
2019-05-22T10:31:45.866Z,32.13
2019-05-22T10:34:15.472Z,32.58
2019-05-22T10:36:44.910Z,31.19
2019-05-22T10:39:14.544Z,31.11
2019-05-22T10:41:44.258Z,31.31
2019-05-22T10:44:13.708Z,30.90
2019-05-22T10:46:44.509Z,29.87
2019-05-22T10:49:14.109Z,29.85
2019-05-22T10:51:43.840Z,31.16
2019-05-22T10:54:13.214Z,30.88
2019-05-22T10:56:43.751Z,31.24
2019-05-22T10:59:13.372Z,30.76
2019-05-22T11:01:42.781Z,31.08
2019-05-22T11:04:12.888Z,30.64
2019-05-22T11:06:42.708Z,29.81
2019-05-22T11:09:13.701Z,29.86
2019-05-22T11:11:43.346Z,30.72
2019-05-22T11:14:14.323Z,30.87
2019-05-22T11:16:44.038Z,30.59
2019-05-22T11:19:13.517Z,30.70
2019-05-22T11:21:43.716Z,30.90
2019-05-22T11:24:13.211Z,29.53
2019-05-22T11:26:43.937Z,29.29
2019-05-22T11:29:14.025Z,28.54
2019-05-22T11:31:44.430Z,29.18
2019-05-22T11:34:14.390Z,29.45
2019-05-22T11:36:44.013Z,29.41
2019-05-22T11:39:17.023Z,29.39
2019-05-22T11:41:47.841Z,31.74
2019-05-22T11:44:17.823Z,30.08
2019-05-22T11:46:47.328Z,29.27
2019-05-22T11:49:17.070Z,29.15
2019-05-22T11:51:47.045Z,30.17
2019-05-22T11:54:16.596Z,29.75
2019-05-22T11:56:46.236Z,29.54
2019-05-22T11:59:16.177Z,29.60
2019-05-22T12:01:46.153Z,29.22
2019-05-22T12:04:16.266Z,29.11
2019-05-22T12:06:47.096Z,30.43
2019-05-22T12:09:16.613Z,30.30
2019-05-22T12:11:46.742Z,29.50
2019-05-22T12:14:17.830Z,30.55
2019-05-22T12:16:47.909Z,30.71
2019-05-22T12:19:17.582Z,30.08
2019-05-22T12:21:47.005Z,29.34
2019-05-22T12:24:27.219Z,29.38
2019-05-22T12:26:48.464Z,29.30
2019-05-22T12:29:18.300Z,29.07
2019-05-22T12:31:47.986Z,28.17
2019-05-22T12:34:18.104Z,27.96
2019-05-22T12:36:51.179Z,27.04
2019-05-22T12:39:19.367Z,27.39
2019-05-22T12:41:49.865Z,27.60
2019-05-22T12:44:20.219Z,27.65
2019-05-22T12:46:50.510Z,27.69
2019-05-22T12:49:20.794Z,27.66
2019-05-22T12:51:50.802Z,27.46
2019-05-22T12:54:20.291Z,26.97
2019-05-22T12:56:50.415Z,26.47
2019-05-22T12:59:20.246Z,26.45
2019-05-22T13:01:51.915Z,27.24
2019-05-22T13:04:23.355Z,27.48
2019-05-22T13:06:52.964Z,27.43
2019-05-22T13:09:22.601Z,28.33
2019-05-22T13:11:52.394Z,28.34
2019-05-22T13:14:21.749Z,28.26
2019-05-22T13:16:51.355Z,27.82
2019-05-22T13:19:21.383Z,27.89
2019-05-22T13:21:53.036Z,28.24
2019-05-22T13:24:23.379Z,27.97
2019-05-22T13:26:53.270Z,27.60
2019-05-22T13:29:24.045Z,27.47
2019-05-22T13:31:54.527Z,27.21
2019-05-22T13:34:27.033Z,27.17
2019-05-22T13:36:58.082Z,27.14
2019-05-22T13:39:27.821Z,28.29
2019-05-22T13:41:57.320Z,28.72
2019-05-22T13:44:27.455Z,28.06
2019-05-22T13:46:57.941Z,28.71
2019-05-22T13:49:29.594Z,28.19
2019-05-22T13:52:00.379Z,27.91
2019-05-22T13:54:30.380Z,28.13
2019-05-22T13:57:00.558Z,28.57
2019-05-22T13:59:30.712Z,28.69
2019-05-22T14:02:00.331Z,28.18
2019-05-22T14:04:29.854Z,27.78
2019-05-22T14:06:59.437Z,27.45
2019-05-22T14:09:29.372Z,27.91
2019-05-22T14:11:59.228Z,27.19
2019-05-22T14:14:28.997Z,27.28
2019-05-22T14:16:58.589Z,27.42
2019-05-22T14:19:28.185Z,27.45
2019-05-22T14:21:57.687Z,27.17
2019-05-22T14:24:27.226Z,27.14
2019-05-22T14:26:56.974Z,26.91
2019-05-22T14:29:26.527Z,27.25
2019-05-22T14:31:56.438Z,27.89
2019-05-22T14:34:26.621Z,27.77
2019-05-22T14:36:57.631Z,27.78
2019-05-22T14:39:28.481Z,27.74
2019-05-22T14:41:59.276Z,27.63
2019-05-22T14:44:28.838Z,27.57
2019-05-22T14:47:12.195Z,27.22
2019-05-22T14:49:29.643Z,28.34
2019-05-22T14:51:59.156Z,28.66
2019-05-22T14:54:28.979Z,29.00
2019-05-22T14:56:58.514Z,29.36
2019-05-22T14:59:28.069Z,29.49
2019-05-22T15:01:58.512Z,29.82
2019-05-22T15:04:28.228Z,29.25
2019-05-22T15:06:57.960Z,29.84
2019-05-22T15:09:27.741Z,29.90
2019-05-22T15:11:57.304Z,30.39
2019-05-22T15:14:26.875Z,29.42
2019-05-22T15:16:56.393Z,30.62
2019-05-22T15:19:26.217Z,30.59
2019-05-22T15:21:55.632Z,30.88
2019-05-22T15:24:26.488Z,30.54
2019-05-22T15:26:56.961Z,30.51
2019-05-22T15:29:26.556Z,30.21
2019-05-22T15:31:56.768Z,30.37
2019-05-22T15:34:26.580Z,30.51
2019-05-22T15:36:57.397Z,30.28
2019-05-22T15:39:28.836Z,30.29
2019-05-22T15:41:59.470Z,30.65
2019-05-22T15:44:29.863Z,30.83
2019-05-22T15:46:59.411Z,31.36
2019-05-22T15:49:30.267Z,31.86
2019-05-22T15:52:00.216Z,31.58
2019-05-22T15:54:31.258Z,32.24
2019-05-22T15:57:03.828Z,32.11
2019-05-22T15:59:35.889Z,32.21
2019-05-22T16:02:06.396Z,32.33
2019-05-22T16:04:38.971Z,32.24
2019-05-22T16:07:09.184Z,32.22
2019-05-22T16:09:38.905Z,32.24
2019-05-22T16:12:09.321Z,31.99
2019-05-22T16:14:39.971Z,32.40
2019-05-22T16:17:09.987Z,32.98
2019-05-22T16:19:40.234Z,32.57
2019-05-22T16:22:11.755Z,33.30
2019-05-22T16:24:41.743Z,33.50
2019-05-22T16:27:14.297Z,33.66
2019-05-22T16:29:45.047Z,34.35
2019-05-22T16:32:17.854Z,34.47
2019-05-22T16:34:47.808Z,34.73
2019-05-22T16:37:17.825Z,35.36
2019-05-22T16:39:50.219Z,35.78
2019-05-22T16:42:19.358Z,35.64
2019-05-22T16:44:49.006Z,35.21
2019-05-22T16:47:19.934Z,35.06
2019-05-22T16:49:51.490Z,35.01
2019-05-22T16:52:21.215Z,34.92
2019-05-22T16:54:51.226Z,35.16
2019-05-22T16:57:21.136Z,35.18
2019-05-22T16:59:51.290Z,34.95
2019-05-22T17:02:21.430Z,35.14
2019-05-22T17:04:51.625Z,35.65
2019-05-22T17:07:21.507Z,35.97
2019-05-22T17:09:52.585Z,35.85
2019-05-22T17:12:23.392Z,36.19
2019-05-22T17:14:53.778Z,36.50
2019-05-22T17:17:23.398Z,36.96
2019-05-22T17:19:53.203Z,37.44
2019-05-22T17:22:24.098Z,38.19
2019-05-22T17:24:53.832Z,38.71
2019-05-22T17:27:23.409Z,39.20
2019-05-22T17:29:53.001Z,39.81
2019-05-22T17:32:24.797Z,40.35
2019-05-22T17:34:54.434Z,40.67
2019-05-22T17:37:27.070Z,40.95
2019-05-22T17:39:56.753Z,41.26
2019-05-22T17:42:28.252Z,41.55
2019-05-22T17:44:59.495Z,41.78
2019-05-22T17:47:30.712Z,42.09
2019-05-22T17:50:01.915Z,42.17
2019-05-22T17:52:32.764Z,42.72
2019-05-22T17:55:03.137Z,42.95
2019-05-22T17:57:32.765Z,43.14
2019-05-22T18:00:04.210Z,43.35
2019-05-22T18:02:35.453Z,43.50
2019-05-22T18:05:06.965Z,44.07
2019-05-22T18:07:37.231Z,44.31
2019-05-22T18:10:08.537Z,44.55
2019-05-22T18:12:39.669Z,44.85
2019-05-22T18:15:11.170Z,45.12
2019-05-22T18:17:41.054Z,45.26
2019-05-22T18:20:12.628Z,45.53
2019-05-22T18:22:42.666Z,45.85
2019-05-22T18:25:13.605Z,46.29
2019-05-22T18:27:43.912Z,46.52
2019-05-22T18:30:14.211Z,46.59
2019-05-22T18:32:44.072Z,46.87
2019-05-22T18:35:15.326Z,47.11
2019-05-22T18:37:44.837Z,47.57
2019-05-22T18:40:15.606Z,48.01
2019-05-22T18:42:45.141Z,48.32
2019-05-22T18:45:14.872Z,48.54
2019-05-22T18:47:44.416Z,48.73
2019-05-22T18:50:16.263Z,48.94
2019-05-22T18:52:49.572Z,49.08
2019-05-22T18:55:19.856Z,49.51
2019-05-22T18:57:49.293Z,49.73
2019-05-22T19:00:22.468Z,49.63
2019-05-22T19:02:52.044Z,49.81
2019-05-22T19:05:25.422Z,50.04
2019-05-22T19:07:55.203Z,50.52
2019-05-22T19:10:24.773Z,50.64
2019-05-22T19:12:54.336Z,51.05
2019-05-22T19:15:24.441Z,51.45
2019-05-22T19:17:54.464Z,51.74
2019-05-22T19:20:24.136Z,52.13
2019-05-22T19:23:00.542Z,52.55
2019-05-22T19:25:25.363Z,52.80
2019-05-22T19:27:54.855Z,52.98
2019-05-22T19:30:24.847Z,53.31
2019-05-22T19:32:54.289Z,53.42
2019-05-22T19:35:23.872Z,53.80
2019-05-22T19:37:53.773Z,53.92
2019-05-22T19:40:23.661Z,54.22
2019-05-22T19:42:53.203Z,54.13
2019-05-22T19:45:24.934Z,54.13
2019-05-22T19:47:56.933Z,53.97
2019-05-22T19:50:27.010Z,53.76
2019-05-22T19:52:57.693Z,53.71
2019-05-22T19:55:28.724Z,53.83
2019-05-22T19:57:58.897Z,53.90
2019-05-22T20:00:30.528Z,54.00
2019-05-22T20:02:59.994Z,53.60
2019-05-22T20:05:29.885Z,53.66
2019-05-22T20:08:00.066Z,53.29
2019-05-22T20:10:29.609Z,52.80
2019-05-22T20:12:59.625Z,52.40
2019-05-22T20:15:29.192Z,52.64
2019-05-22T20:17:58.748Z,52.81
2019-05-22T20:20:28.240Z,52.44
2019-05-22T20:22:58.484Z,52.75
2019-05-22T20:25:28.345Z,53.10
2019-05-22T20:27:59.244Z,53.48
2019-05-22T20:30:28.859Z,53.96
2019-05-22T20:32:58.322Z,54.41
2019-05-22T20:35:27.871Z,54.93
2019-05-22T20:38:00.425Z,55.87
2019-05-22T20:40:30.289Z,56.92
2019-05-22T20:43:00.363Z,57.70
2019-05-22T20:45:30.832Z,57.81
2019-05-22T20:48:21.850Z,57.85
2019-05-22T20:50:51.597Z,58.27
2019-05-22T20:53:22.010Z,58.99
2019-05-22T20:55:52.519Z,59.48
2019-05-22T20:58:23.091Z,59.17
2019-05-22T21:00:53.300Z,58.67
2019-05-22T21:03:23.086Z,57.23
2019-05-22T21:05:54.347Z,57.23
2019-05-22T21:08:26.642Z,56.85
2019-05-22T21:10:58.733Z,56.47
2019-05-22T21:13:28.482Z,56.23
2019-05-22T21:15:58.679Z,56.19
2019-05-22T21:18:34.699Z,56.37
2019-05-22T21:21:05.349Z,56.77
2019-05-22T21:23:35.743Z,57.28
2019-05-22T21:26:05.475Z,57.62
2019-05-22T21:28:35.419Z,58.07
2019-05-22T21:31:05.998Z,58.55
2019-05-22T21:33:36.125Z,59.06
2019-05-22T21:36:06.299Z,59.26
2019-05-22T21:38:36.206Z,59.51
2019-05-22T21:41:06.392Z,59.60
2019-05-22T21:43:36.122Z,59.87
2019-05-22T21:46:05.834Z,59.87
2019-05-22T21:48:36.513Z,60.06
2019-05-22T21:51:07.589Z,60.47
2019-05-22T21:53:37.946Z,60.75
2019-05-22T21:56:08.239Z,60.93
2019-05-22T21:58:38.559Z,61.22
2019-05-22T22:01:17.878Z,61.66
2019-05-22T22:03:52.543Z,61.64
2019-05-22T22:06:22.779Z,61.86
2019-05-22T22:08:52.795Z,61.99
2019-05-22T22:11:25.892Z,62.10
2019-05-22T22:13:56.522Z,62.36
2019-05-22T22:16:26.967Z,62.57
2019-05-22T22:18:56.828Z,62.43
2019-05-22T22:21:27.144Z,62.56
2019-05-22T22:23:57.408Z,62.92
2019-05-22T22:26:29.830Z,63.07
2019-05-22T22:28:59.591Z,63.42
2019-05-22T22:31:32.382Z,63.78
2019-05-22T22:34:15.030Z,64.10
2019-05-22T22:36:44.526Z,64.59
2019-05-22T22:39:15.176Z,64.89
2019-05-22T22:41:46.237Z,65.26
2019-05-22T22:47:42.244Z,65.85
2019-05-22T22:50:13.249Z,65.93
2019-05-22T22:52:45.905Z,66.17
2019-05-22T22:55:17.576Z,66.26
2019-05-22T22:57:50.881Z,65.78
2019-05-22T23:00:38.105Z,65.82
2019-05-22T23:03:11.765Z,66.25
2019-05-22T23:05:43.151Z,66.71
2019-05-22T23:08:17.339Z,66.64
2019-05-22T23:10:47.627Z,67.12
2019-05-22T23:13:17.994Z,67.76
2019-05-22T23:15:49.054Z,68.37
2019-05-22T23:18:47.615Z,68.70
2019-05-22T23:21:16.227Z,67.87
2019-05-22T23:24:20.229Z,67.45
2019-05-22T23:26:50.846Z,67.46
2019-05-22T23:29:21.273Z,67.76
2019-05-22T23:31:50.812Z,67.73
2019-05-22T23:34:20.517Z,67.93
2019-05-22T23:36:50.525Z,68.29
2019-05-22T23:39:21.913Z,68.41
2019-05-22T23:41:56.307Z,68.68
2019-05-22T23:44:25.348Z,68.53
2019-05-22T23:46:56.058Z,67.71
2019-05-22T23:49:26.167Z,67.76
2019-05-22T23:51:55.937Z,67.69
2019-05-22T23:54:25.973Z,68.27
2019-05-22T23:56:57.063Z,68.60
2019-05-22T23:59:27.971Z,69.08
